Time;durP1;ratioP1;P1;durP2;ratioP2;P2;SDS_P1;SDS_P2;PMS_P1;PMS_P2;Temp;Humidity;BMP_temperature;BMP_pressure;BME280_temperature;BME280_humidity;BME280_pressure;Samples;Min_cycle;Max_cycle;Signal;HPM_P1;HPM_P2
2022/09/25 00:00:54;;;;;;;13.18;3.15;;;9.80;99.90;;;;;;4936909;29;20107;-73
2022/09/25 00:03:21;;;;;;;14.65;3.40;;;9.80;99.90;;;;;;4935831;29;20100;-72
2022/09/25 00:05:47;;;;;;;8.57;2.90;;;9.80;99.90;;;;;;4935981;29;20055;-72
2022/09/25 00:08:15;;;;;;;19.95;3.97;;;9.80;99.90;;;;;;4927317;29;20303;-73
2022/09/25 00:10:42;;;;;;;13.82;2.83;;;9.80;99.90;;;;;;4930535;29;20055;-72
2022/09/25 00:13:08;;;;;;;11.40;2.78;;;9.80;99.90;;;;;;4934381;29;20051;-72
2022/09/25 00:15:34;;;;;;;16.00;3.88;;;9.80;99.90;;;;;;4939068;29;20087;-73
2022/09/25 00:18:00;;;;;;;13.27;3.50;;;9.80;99.90;;;;;;4936776;29;20051;-72
2022/09/25 00:20:25;;;;;;;12.82;3.50;;;9.90;99.90;;;;;;4936416;29;20039;-72
2022/09/25 00:22:52;;;;;;;10.77;3.50;;;9.80;99.90;;;;;;4935207;29;20044;-72
2022/09/25 00:25:19;;;;;;;12.32;3.67;;;9.80;99.90;;;;;;4918591;29;20066;-71
2022/09/25 00:27:45;;;;;;;12.10;3.40;;;9.80;99.90;;;;;;4936404;29;20040;-72
2022/09/25 00:30:13;;;;;;;10.45;2.78;;;9.70;99.90;;;;;;4936360;29;20040;-72
2022/09/25 00:32:39;;;;;;;14.80;3.10;;;9.70;99.90;;;;;;4916110;29;20050;-72
2022/09/25 00:35:05;;;;;;;12.05;2.50;;;9.60;99.90;;;;;;4944299;29;20446;-72
2022/09/25 00:37:35;;;;;;;10.95;3.58;;;9.60;99.90;;;;;;4929539;29;20055;-73
2022/09/25 00:40:02;;;;;;;9.63;3.00;;;9.60;99.90;;;;;;4943002;29;20039;-72
2022/09/25 00:42:27;;;;;;;14.57;3.63;;;9.50;99.90;;;;;;4927133;29;20398;-71
2022/09/25 00:44:56;;;;;;;8.82;2.55;;;9.50;99.90;;;;;;4927519;29;20035;-72
2022/09/25 00:47:43;;;;;;;11.93;2.92;;;9.50;99.90;;;;;;4931362;29;20043;-72
2022/09/25 00:50:30;;;;;;;12.75;2.70;;;9.50;99.90;;;;;;4936410;29;20494;-72
2022/09/25 00:53:02;;;;;;;12.60;3.35;;;9.60;99.90;;;;;;4933778;29;20353;-72
2022/09/25 00:55:30;;;;;;;10.85;2.78;;;9.60;99.90;;;;;;4942015;29;20425;-72
2022/09/25 00:57:57;;;;;;;12.87;3.10;;;9.60;99.90;;;;;;4933235;29;20529;-72
2022/09/25 01:00:22;;;;;;;15.27;2.95;;;9.50;99.90;;;;;;4948737;29;20445;-72
2022/09/25 01:02:53;;;;;;;11.00;2.80;;;9.50;99.90;;;;;;4924080;29;20040;-71
2022/09/25 01:05:23;;;;;;;8.85;2.58;;;9.50;99.90;;;;;;4935351;29;20074;-73
2022/09/25 01:07:51;;;;;;;9.15;2.92;;;9.50;99.90;;;;;;4926236;29;20035;-72
2022/09/25 01:10:19;;;;;;;12.05;2.78;;;9.50;99.90;;;;;;4929281;29;20040;-72
2022/09/25 01:12:47;;;;;;;13.15;3.40;;;9.50;99.90;;;;;;4943370;29;20494;-72
2022/09/25 01:15:16;;;;;;;12.82;2.95;;;9.40;99.90;;;;;;4934954;29;20383;-72
2022/09/25 01:17:53;;;;;;;9.40;2.42;;;9.40;99.90;;;;;;4930759;29;20403;-71
2022/09/25 01:20:28;;;;;;;11.93;2.75;;;9.30;99.90;;;;;;4918757;29;20044;-71
2022/09/25 01:23:10;;;;;;;13.70;2.38;;;9.30;99.90;;;;;;4932761;29;20394;-71
2022/09/25 01:26:13;;;;;;;8.77;2.67;;;9.30;99.90;;;;;;4917636;29;20131;-72
2022/09/25 01:28:48;;;;;;;11.40;2.70;;;9.30;99.90;;;;;;4912880;29;20059;-72
2022/09/25 01:31:37;;;;;;;10.43;2.70;;;9.30;99.90;;;;;;4932550;29;20054;-72
2022/09/25 11:01:52;;;;;;;2.58;0.75;;;15.60;99.90;;;;;;5765969;23;20045;-74
2022/09/25 11:04:33;;;;;;;2.47;0.90;;;15.50;99.90;;;;;;4877833;29;20519;-74
2022/09/25 11:07:03;;;;;;;2.97;0.70;;;15.50;99.90;;;;;;4871682;29;20045;-75
2022/09/25 11:09:31;;;;;;;6.18;1.30;;;15.40;99.90;;;;;;4846355;29;20054;-75
2022/09/25 11:12:22;;;;;;;2.60;1.05;;;15.50;99.90;;;;;;4866737;29;20053;-74
2022/09/25 11:15:19;;;;;;;2.75;0.90;;;15.80;99.90;;;;;;4859263;29;20061;-73
2022/09/25 11:17:50;;;;;;;5.38;1.20;;;16.10;99.90;;;;;;4852599;29;20448;-75
2022/09/25 11:20:19;;;;;;;4.25;0.90;;;16.20;99.90;;;;;;4879406;29;20059;-73
2022/09/25 11:23:07;;;;;;;4.78;1.15;;;16.20;99.90;;;;;;4878045;29;20127;-74
2022/09/25 11:26:04;;;;;;;2.42;1.00;;;16.50;99.90;;;;;;4851805;29;20045;-76
2022/09/25 11:29:04;;;;;;;4.43;1.10;;;17.20;99.90;;;;;;4869444;29;20053;-75
2022/09/25 11:31:50;;;;;;;7.32;1.15;;;17.60;99.90;;;;;;4860966;29;20051;-74
2022/09/25 11:34:45;;;;;;;3.80;1.00;;;18.00;99.90;;;;;;4865691;29;20053;-73
2022/09/25 11:37:41;;;;;;;4.47;1.10;;;17.90;99.90;;;;;;4876824;29;20063;-75
2022/09/25 11:43:11;;;;;;;2.40;0.73;;;18.10;99.90;;;;;;4863645;29;20053;-74
2022/09/25 11:45:50;;;;;;;2.60;0.75;;;18.00;99.90;;;;;;4876648;29;20041;-74
2022/09/25 11:48:49;;;;;;;;;;;17.90;99.90;;;;;;4881960;29;20409;-76
2022/09/25 11:51:46;;;;;;;3.15;0.85;;;18.20;99.90;;;;;;4819655;29;19928;-75
2022/09/25 11:54:46;;;;;;;3.38;0.80;;;18.70;99.70;;;;;;4887195;29;20048;-74
2022/09/25 11:57:14;;;;;;;3.85;1.10;;;18.70;98.80;;;;;;4875783;29;20049;-76
2022/09/25 11:59:55;;;;;;;4.78;0.88;;;18.70;99.90;;;;;;4873293;29;20087;-75
2022/09/25 12:02:54;;;;;;;4.60;1.25;;;18.40;99.90;;;;;;4882067;29;20527;-74
2022/09/25 12:05:45;;;;;;;6.18;1.48;;;18.00;99.90;;;;;;4873598;29;20468;-76
2022/09/25 12:08:32;;;;;;;4.25;1.17;;;17.70;99.90;;;;;;4871515;29;20048;-74
2022/09/25 12:11:26;;;;;;;3.75;1.17;;;17.50;99.90;;;;;;4857548;29;20500;-73
2022/09/25 12:14:10;;;;;;;5.55;1.25;;;17.20;99.90;;;;;;4872647;29;20408;-73
2022/09/25 12:17:06;;;;;;;5.85;1.48;;;17.00;99.90;;;;;;4878803;29;20041;-75
2022/09/25 12:19:57;;;;;;;6.57;1.35;;;16.70;99.90;;;;;;4863524;29;20527;-75
2022/09/25 12:22:49;;;;;;;3.45;1.15;;;16.40;99.90;;;;;;4877936;29;20127;-75
2022/09/25 12:25:34;;;;;;;4.97;1.27;;;16.30;99.90;;;;;;4862059;29;20406;-69
2022/09/25 12:28:15;;;;;;;4.47;1.10;;;16.20;99.90;;;;;;4878023;29;20070;-73
2022/09/25 12:31:10;;;;;;;3.50;1.10;;;16.20;99.90;;;;;;4876794;29;20444;-75
2022/09/25 12:33:55;;;;;;;2.47;1.13;;;16.30;99.90;;;;;;4862162;29;20156;-74
2022/09/25 12:36:35;;;;;;;3.55;1.20;;;16.60;99.90;;;;;;4878613;29;20400;-75
2022/09/25 12:39:31;;;;;;;8.50;1.60;;;16.90;99.90;;;;;;4862399;29;20084;-74
2022/09/25 12:42:16;;;;;;;4.28;1.10;;;17.20;99.90;;;;;;4873257;29;20056;-74
2022/09/25 12:45:04;;;;;;;5.10;1.00;;;17.10;99.90;;;;;;4878786;29;20440;-73
2022/09/25 12:47:33;;;;;;;5.17;1.30;;;16.70;99.90;;;;;;4878911;29;20189;-73
2022/09/25 12:50:05;;;;;;;6.30;1.52;;;16.40;99.90;;;;;;4879539;29;20052;-74
2022/09/25 12:52:34;;;;;;;6.95;1.25;;;16.50;99.90;;;;;;4872300;29;20175;-74
2022/09/25 12:55:17;;;;;;;5.82;1.17;;;16.50;99.90;;;;;;4848430;29;20072;-75
2022/09/25 12:58:17;;;;;;;5.38;1.42;;;16.60;99.90;;;;;;4878497;29;20125;-75
2022/09/25 13:00:45;;;;;;;2.88;0.80;;;16.50;99.90;;;;;;4847391;29;20065;-74
2022/09/25 13:03:21;;;;;;;3.30;1.10;;;16.40;99.90;;;;;;4878545;29;20476;-74
2022/09/25 13:06:02;;;;;;;3.97;1.33;;;16.40;99.90;;;;;;4876383;29;20080;-74
2022/09/25 13:09:05;;;;;;;7.55;1.40;;;16.50;99.90;;;;;;4872960;29;20048;-75
2022/09/25 13:11:44;;;;;;;5.90;1.05;;;16.40;99.90;;;;;;4889012;29;20044;-75
2022/09/25 13:14:27;;;;;;;6.20;1.25;;;16.40;99.90;;;;;;4877535;29;20048;-75
2022/09/25 13:16:53;;;;;;;2.83;0.93;;;16.30;99.90;;;;;;4873963;29;20572;-74
2022/09/25 13:19:25;;;;;;;4.95;1.15;;;16.20;99.10;;;;;;4875096;29;20045;-73
2022/09/25 13:21:59;;;;;;;6.00;1.08;;;16.10;99.90;;;;;;4877800;29;20048;-74
2022/09/25 13:24:25;;;;;;;3.17;1.10;;;16.00;99.90;;;;;;4873014;29;20084;-73
2022/09/25 13:26:54;;;;;;;4.70;1.00;;;15.90;99.90;;;;;;4856358;29;20091;-74
2022/09/25 13:29:28;;;;;;;4.50;1.10;;;15.90;99.90;;;;;;4869207;29;20062;-74
2022/09/25 13:32:11;;;;;;;6.22;1.40;;;15.80;99.90;;;;;;4872707;29;20051;-73
2022/09/25 13:34:39;;;;;;;6.32;1.30;;;15.70;99.90;;;;;;4874593;29;20080;-75
2022/09/25 13:37:07;;;;;;;;;;;15.80;99.50;;;;;;4872436;29;20041;-74
2022/09/25 13:42:45;;;;;;;;;;;15.70;99.60;;;;;;4873247;29;20422;-74
2022/09/25 13:45:28;;;;;;;6.72;1.10;;;15.60;99.60;;;;;;4855073;29;19939;-73
2022/09/25 13:47:58;;;;;;;5.10;1.10;;;15.50;99.90;;;;;;4873675;29;20569;-73
2022/09/25 13:50:28;;;;;;;5.55;1.20;;;15.40;99.90;;;;;;4876457;29;20128;-73
2022/09/25 13:53:16;;;;;;;5.28;0.85;;;15.40;99.90;;;;;;4874426;29;20526;-72
2022/09/25 13:56:02;;;;;;;5.72;1.50;;;15.40;99.90;;;;;;4877912;29;20572;-72
2022/09/25 13:58:32;;;;;;;5.50;1.30;;;15.30;99.90;;;;;;4844323;29;20424;-74
2022/09/25 14:00:59;;;;;;;3.53;0.90;;;15.40;99.90;;;;;;4858693;29;20133;-74
2022/09/25 14:03:31;;;;;;;2.95;1.00;;;15.30;99.90;;;;;;4867906;29;20071;-73
2022/09/25 14:05:58;;;;;;;5.35;0.98;;;15.40;99.90;;;;;;4876618;29;20083;-74
2022/09/25 14:08:26;;;;;;;2.42;0.90;;;15.40;99.90;;;;;;4861772;29;20049;-75
2022/09/25 14:10:54;;;;;;;;;;;15.50;99.90;;;;;;4854484;29;20165;-74
2022/09/25 14:13:25;;;;;;;6.10;1.10;;;15.40;99.90;;;;;;4868267;29;19924;-74
2022/09/25 14:15:55;;;;;;;7.55;1.25;;;15.30;99.90;;;;;;4869575;29;20045;-74
2022/09/25 14:18:39;;;;;;;6.20;0.98;;;15.30;99.90;;;;;;4875264;29;20526;-74
2022/09/25 14:21:06;;;;;;;5.10;1.20;;;15.30;99.90;;;;;;4875525;29;20140;-73
2022/09/25 14:23:32;;;;;;;6.35;1.42;;;15.30;99.90;;;;;;4859421;29;20492;-73
2022/09/25 14:26:16;;;;;;;4.35;1.10;;;15.30;99.90;;;;;;4871941;29;20135;-74
2022/09/25 14:28:44;;;;;;;5.78;1.20;;;15.30;99.90;;;;;;4872232;29;20128;-75
2022/09/25 14:31:27;;;;;;;7.00;1.10;;;15.30;99.90;;;;;;4853469;29;20041;-72
2022/09/25 14:34:04;;;;;;;6.30;1.80;;;15.20;99.90;;;;;;4851906;29;20064;-74
2022/09/25 14:37:04;;;;;;;14.70;2.13;;;15.30;99.90;;;;;;4875256;29;20165;-73
2022/09/25 14:39:46;;;;;;;5.63;1.90;;;15.30;99.90;;;;;;4858419;29;20053;-75
2022/09/25 14:42:31;;;;;;;7.38;1.40;;;15.30;99.90;;;;;;4876637;29;20084;-73
2022/09/25 14:45:16;;;;;;;8.70;1.33;;;15.20;99.90;;;;;;4866779;29;20060;-74
2022/09/25 14:47:44;;;;;;;3.75;1.35;;;15.10;99.90;;;;;;4851976;29;20061;-74
2022/09/25 14:50:28;;;;;;;8.00;1.20;;;15.00;99.90;;;;;;4873722;29;20519;-72
2022/09/25 14:53:01;;;;;;;5.30;1.20;;;15.10;99.90;;;;;;4866206;29;20090;-72
2022/09/25 14:55:36;;;;;;;2.13;1.00;;;15.10;99.90;;;;;;4873602;29;20415;-73
2022/09/25 14:58:08;;;;;;;8.80;1.45;;;15.10;99.90;;;;;;4856386;29;20105;-74
2022/09/25 15:00:34;;;;;;;5.82;0.93;;;15.00;99.90;;;;;;4857673;29;20128;-74
2022/09/25 15:03:01;;;;;;;4.03;1.17;;;15.00;99.90;;;;;;4871136;29;20181;-73
2022/09/25 15:05:33;;;;;;;10.27;1.42;;;15.00;99.90;;;;;;4873745;29;20272;-73
2022/09/25 15:08:01;;;;;;;2.67;1.20;;;14.90;99.90;;;;;;4875236;29;20411;-72
2022/09/25 15:10:35;;;;;;;6.65;1.35;;;14.90;99.90;;;;;;4857309;29;20053;-74
2022/09/25 15:13:20;;;;;;;4.75;1.30;;;14.90;99.90;;;;;;4874193;29;20518;-74
2022/09/25 15:18:40;;;;;;;3.83;1.20;;;14.90;99.90;;;;;;4850545;29;20080;-73
2022/09/25 15:21:27;;;;;;;7.70;1.58;;;14.90;99.90;;;;;;4876644;29;20813;-75
2022/09/25 15:23:59;;;;;;;7.03;1.13;;;14.90;99.90;;;;;;4880427;29;20435;-73
2022/09/25 15:26:27;;;;;;;4.20;0.90;;;14.90;99.90;;;;;;4883110;29;20049;-74
2022/09/25 15:28:53;;;;;;;;;;;15.00;99.90;;;;;;4879875;29;20052;-75
2022/09/25 15:31:19;;;;;;;3.45;1.15;;;14.90;99.90;;;;;;4862146;29;20023;-74
2022/09/25 15:34:10;;;;;;;2.10;0.82;;;15.00;99.90;;;;;;4881292;29;20056;-74
2022/09/25 15:36:38;;;;;;;4.28;1.10;;;14.90;99.90;;;;;;4871354;29;20131;-73
2022/09/25 15:39:15;;;;;;;7.68;1.70;;;14.80;99.90;;;;;;4861216;29;20045;-75
2022/09/25 15:41:42;;;;;;;6.50;1.30;;;14.90;99.90;;;;;;4863058;29;20575;-74
2022/09/25 15:44:24;;;;;;;1.85;0.85;;;14.80;99.90;;;;;;4860212;29;20407;-73
2022/09/25 15:46:59;;;;;;;4.18;1.00;;;14.70;99.90;;;;;;4875841;29;20056;-74
2022/09/25 15:49:40;;;;;;;4.03;0.90;;;14.60;99.90;;;;;;4862426;29;20061;-73
2022/09/25 15:52:32;;;;;;;3.85;1.67;;;14.60;99.90;;;;;;4875753;29;20041;-72
2022/09/25 15:55:14;;;;;;;3.88;1.10;;;14.50;99.90;;;;;;4869566;29;20455;-72
2022/09/25 15:57:40;;;;;;;5.97;1.20;;;14.40;99.90;;;;;;4876773;29;20495;-73
2022/09/25 16:06:02;;;;;;;3.13;0.80;;;14.20;99.90;;;;;;4876298;29;20496;-73
2022/09/25 16:08:31;;;;;;;6.30;1.27;;;14.20;99.90;;;;;;4880007;29;20443;-74
2022/09/25 16:11:18;;;;;;;3.70;1.20;;;14.20;99.90;;;;;;4879096;29;20040;-74
2022/09/25 16:13:47;;;;;;;4.63;1.30;;;14.20;99.90;;;;;;4879216;29;20049;-73
2022/09/25 16:16:30;;;;;;;3.67;1.10;;;14.20;99.90;;;;;;4872001;29;20048;-72
2022/09/25 16:19:26;;;;;;;8.48;1.50;;;14.10;99.90;;;;;;4845143;29;20095;-72
2022/09/25 16:21:57;;;;;;;4.10;1.40;;;14.10;99.90;;;;;;4873050;29;20113;-73
2022/09/25 16:24:25;;;;;;;4.40;1.23;;;14.20;99.90;;;;;;4878361;29;20049;-74
2022/09/25 16:27:01;;;;;;;8.32;1.50;;;14.10;99.90;;;;;;4876956;29;20136;-74
2022/09/25 16:29:30;;;;;;;3.83;1.38;;;14.10;99.90;;;;;;4855741;29;20056;-73
2022/09/25 16:32:02;;;;;;;6.07;1.42;;;14.10;99.90;;;;;;4867166;29;20121;-73
2022/09/25 16:34:33;;;;;;;2.40;1.35;;;14.00;99.90;;;;;;4873218;29;20498;-72
2022/09/25 16:37:04;;;;;;;8.85;1.73;;;14.00;99.90;;;;;;4869798;29;20041;-72
2022/09/25 16:39:36;;;;;;;5.28;1.80;;;14.00;99.90;;;;;;4876994;29;20053;-73
2022/09/25 16:42:20;;;;;;;5.38;1.63;;;13.90;99.90;;;;;;4875081;29;20045;-72
2022/09/25 16:44:46;;;;;;;4.25;1.38;;;13.90;99.90;;;;;;4876869;29;20582;-73
2022/09/25 16:47:20;;;;;;;6.18;1.73;;;13.80;99.90;;;;;;4872484;29;20044;-73
2022/09/25 16:49:47;;;;;;;6.90;1.88;;;13.80;99.90;;;;;;4859946;29;20040;-73
2022/09/25 16:52:19;;;;;;;3.63;1.70;;;14.00;99.90;;;;;;4869666;29;20100;-72
2022/09/25 16:54:53;;;;;;;4.00;1.33;;;13.80;99.90;;;;;;4872088;29;20464;-72
2022/09/25 16:57:24;;;;;;;4.65;2.17;;;13.90;99.90;;;;;;4855432;29;20054;-72
2022/09/25 16:59:51;;;;;;;3.30;1.23;;;13.80;99.90;;;;;;4856584;29;20117;-72
2022/09/25 17:02:37;;;;;;;4.47;1.48;;;13.80;99.90;;;;;;4870685;29;20053;-73
2022/09/25 17:05:06;;;;;;;6.55;2.10;;;13.80;99.90;;;;;;4874264;29;20052;-72
2022/09/25 17:07:31;;;;;;;3.95;1.85;;;13.80;99.90;;;;;;4863453;29;20049;-72
2022/09/25 17:09:58;;;;;;;8.55;1.40;;;13.70;99.90;;;;;;4850477;29;20046;-74
2022/09/25 17:12:25;;;;;;;8.18;1.20;;;13.70;99.90;;;;;;4863509;29;20049;-72
2022/09/25 17:14:51;;;;;;;5.22;1.20;;;13.60;99.90;;;;;;4869753;29;20128;-73
2022/09/25 17:17:20;;;;;;;7.75;2.30;;;13.60;99.90;;;;;;4864327;29;20064;-72
2022/09/25 17:19:46;;;;;;;5.80;2.88;;;13.60;99.90;;;;;;4868520;29;20599;-72
2022/09/25 17:22:12;;;;;;;4.75;1.65;;;13.60;99.90;;;;;;4865978;29;20404;-73
2022/09/25 17:24:38;;;;;;;5.53;1.73;;;13.60;99.90;;;;;;4868136;29;20052;-73
2022/09/25 17:27:14;;;;;;;7.20;1.30;;;13.60;99.90;;;;;;4878480;29;20088;-73
2022/09/25 17:29:41;;;;;;;3.08;1.30;;;13.50;99.90;;;;;;4873307;29;20532;-71
2022/09/25 17:32:15;;;;;;;4.20;1.40;;;13.50;99.90;;;;;;4870917;29;20037;-73
2022/09/25 17:34:44;;;;;;;5.43;1.80;;;13.40;99.90;;;;;;4873809;29;20056;-73
2022/09/25 17:37:10;;;;;;;6.55;1.50;;;13.40;99.90;;;;;;4858943;29;20089;-73
2022/09/25 17:39:37;;;;;;;6.78;1.70;;;13.40;99.90;;;;;;4864141;29;20057;-73
2022/09/25 17:42:03;;;;;;;8.10;1.80;;;13.40;99.90;;;;;;4873529;29;20045;-72
2022/09/25 17:44:29;;;;;;;10.57;1.65;;;13.30;99.90;;;;;;4874647;29;20049;-74
2022/09/25 17:46:55;;;;;;;5.38;1.40;;;13.30;99.90;;;;;;4874089;29;20041;-73
2022/09/25 17:49:22;;;;;;;3.17;1.33;;;13.30;99.90;;;;;;4861514;29;20128;-71
2022/09/25 17:51:51;;;;;;;4.70;1.80;;;13.30;99.90;;;;;;4856417;29;20399;-75
2022/09/25 17:54:17;;;;;;;4.93;1.63;;;13.20;99.90;;;;;;4863555;29;20106;-75
2022/09/25 17:56:45;;;;;;;9.85;1.48;;;13.20;99.90;;;;;;4850448;29;20508;-73
2022/09/25 17:59:10;;;;;;;5.07;1.70;;;13.20;99.90;;;;;;4845436;29;20049;-71
2022/09/25 18:01:37;;;;;;;4.15;1.58;;;13.10;99.90;;;;;;4871017;29;21303;-72
2022/09/25 18:04:20;;;;;;;6.00;1.90;;;13.10;99.90;;;;;;4875400;29;20060;-73
2022/09/25 18:06:48;;;;;;;7.38;1.70;;;13.10;99.90;;;;;;4867848;29;20045;-72
2022/09/25 18:09:13;;;;;;;;;;;13.00;99.90;;;;;;4871005;29;20044;-72
2022/09/25 18:11:43;;;;;;;4.78;1.70;;;12.90;99.90;;;;;;4869261;29;19928;-71
2022/09/25 18:14:13;;;;;;;9.50;2.28;;;12.80;99.90;;;;;;4868874;29;20044;-73
2022/09/25 18:16:41;;;;;;;5.55;2.33;;;12.80;99.90;;;;;;4871238;29;20041;-72
2022/09/25 18:22:16;;;;;;;7.47;2.25;;;12.70;99.90;;;;;;4860484;29;20551;-72
2022/09/25 18:24:42;;;;;;;5.07;2.40;;;12.60;99.90;;;;;;4854973;29;20053;-71
2022/09/25 18:27:07;;;;;;;5.68;2.00;;;12.60;99.90;;;;;;4848298;29;20120;-71
2022/09/25 18:29:35;;;;;;;6.25;2.03;;;12.50;99.90;;;;;;4870539;29;20496;-73
2022/09/25 18:32:01;;;;;;;4.32;1.98;;;12.40;99.90;;;;;;4851341;29;20688;-73
2022/09/25 18:34:28;;;;;;;8.63;2.47;;;12.40;99.90;;;;;;4871281;29;20041;-72
2022/09/25 18:36:54;;;;;;;6.30;2.50;;;12.30;99.90;;;;;;4874445;29;20138;-73
2022/09/25 18:39:19;;;;;;;7.72;2.40;;;12.30;99.90;;;;;;4870718;29;20520;-73
2022/09/25 18:41:49;;;;;;;7.07;2.75;;;12.20;99.90;;;;;;4875123;29;20052;-73
2022/09/25 18:44:16;;;;;;;7.80;2.20;;;12.20;99.90;;;;;;4856591;29;20049;-73
2022/09/25 18:46:42;;;;;;;9.47;1.97;;;12.20;99.90;;;;;;4874238;29;20440;-74
2022/09/25 18:49:08;;;;;;;7.05;2.47;;;12.20;99.90;;;;;;4871311;29;20041;-74
2022/09/25 18:51:33;;;;;;;7.85;2.72;;;12.10;99.90;;;;;;4877053;29;20536;-74
2022/09/25 18:53:59;;;;;;;4.65;2.05;;;12.10;99.90;;;;;;4876690;29;20104;-73
2022/09/25 18:56:26;;;;;;;7.30;2.33;;;12.20;99.90;;;;;;4876154;29;20399;-73
2022/09/25 18:58:51;;;;;;;8.95;2.83;;;12.10;99.90;;;;;;4873374;29;20053;-73
2022/09/25 19:01:17;;;;;;;7.50;2.65;;;12.10;99.90;;;;;;4873756;29;20045;-72
2022/09/25 19:03:48;;;;;;;7.97;2.20;;;12.10;99.90;;;;;;4871727;29;20052;-74
2022/09/25 19:06:13;;;;;;;4.80;2.30;;;12.00;99.90;;;;;;4872278;29;20077;-74
2022/09/25 19:08:39;;;;;;;7.05;2.25;;;12.10;99.90;;;;;;4875509;29;20076;-72
2022/09/25 19:11:14;;;;;;;8.60;2.33;;;12.00;99.90;;;;;;4873704;29;20492;-74
2022/09/25 19:13:41;;;;;;;6.55;2.35;;;12.00;99.90;;;;;;4875828;29;20045;-73
2022/09/25 19:16:08;;;;;;;8.52;2.38;;;12.00;99.90;;;;;;4855242;29;20131;-73
2022/09/25 19:18:34;;;;;;;5.50;2.20;;;12.00;99.90;;;;;;4868927;29;20049;-72
2022/09/25 19:21:00;;;;;;;5.05;2.40;;;12.10;99.90;;;;;;4852506;29;20395;-73
2022/09/25 19:23:26;;;;;;;6.82;2.38;;;12.00;99.90;;;;;;4877037;29;20538;-73
2022/09/25 19:26:01;;;;;;;9.20;2.33;;;11.90;99.90;;;;;;4872975;29;20053;-72
2022/09/25 19:28:28;;;;;;;8.30;1.92;;;11.90;99.90;;;;;;4874562;29;20077;-72
2022/09/25 19:30:58;;;;;;;6.15;2.28;;;11.90;99.90;;;;;;4835226;29;20094;-74
2022/09/25 19:33:24;;;;;;;6.22;2.47;;;12.00;99.90;;;;;;4857051;29;20044;-73
2022/09/25 19:35:59;;;;;;;5.80;2.30;;;11.90;99.90;;;;;;4852311;29;20056;-72
2022/09/25 19:38:25;;;;;;;5.57;2.47;;;11.90;99.90;;;;;;4874091;29;20141;-73
2022/09/25 19:40:51;;;;;;;10.02;2.88;;;11.90;99.90;;;;;;4869333;29;20050;-77
2022/09/25 19:43:16;;;;;;;7.35;2.30;;;11.90;99.90;;;;;;4871174;29;20519;-73
2022/09/25 19:45:52;;;;;;;6.00;2.25;;;11.90;99.90;;;;;;4875185;29;20071;-72
2022/09/25 19:48:22;;;;;;;3.97;2.00;;;11.80;99.90;;;;;;4873716;29;20045;-72
2022/09/25 19:50:48;;;;;;;11.30;3.17;;;11.80;99.90;;;;;;4857976;29;20638;-73
2022/09/25 19:53:15;;;;;;;8.73;2.38;;;11.80;99.90;;;;;;4874537;29;20460;-72
2022/09/25 19:55:41;;;;;;;7.60;2.80;;;11.70;99.90;;;;;;4854644;29;20041;-72
2022/09/25 19:58:09;;;;;;;7.43;2.63;;;11.70;99.90;;;;;;4873655;29;20073;-74
2022/09/25 20:00:39;;;;;;;10.25;3.15;;;11.70;99.90;;;;;;4873844;29;20045;-74
2022/09/25 20:03:04;;;;;;;8.35;2.92;;;11.70;99.90;;;;;;4857677;29;20064;-73
2022/09/25 20:05:35;;;;;;;6.30;3.00;;;11.60;99.90;;;;;;4877671;29;20053;-73
2022/09/25 20:08:00;;;;;;;7.57;2.83;;;11.60;99.90;;;;;;4862126;29;20480;-73
2022/09/25 20:10:28;;;;;;;5.90;2.80;;;11.60;99.90;;;;;;4870813;29;20048;-73
2022/09/25 20:12:53;;;;;;;9.57;2.33;;;11.90;99.90;;;;;;4872637;29;20037;-73
2022/09/25 20:15:19;;;;;;;4.85;2.28;;;11.50;99.90;;;;;;4856415;29;20044;-74
2022/09/25 20:17:45;;;;;;;5.78;2.47;;;11.50;99.90;;;;;;4878443;29;20082;-73
2022/09/25 20:20:11;;;;;;;7.22;2.85;;;11.40;99.90;;;;;;4861099;29;20037;-73
2022/09/25 20:22:36;;;;;;;8.13;2.80;;;11.40;99.90;;;;;;4876815;29;20045;-72
2022/09/25 20:25:02;;;;;;;6.55;2.45;;;11.40;99.90;;;;;;4872598;29;20048;-73
2022/09/25 20:27:28;;;;;;;5.93;2.60;;;11.30;99.90;;;;;;4870474;29;20415;-73
2022/09/25 20:29:54;;;;;;;13.40;6.35;;;11.30;99.90;;;;;;4855559;29;20050;-73
2022/09/25 20:32:19;;;;;;;7.28;4.03;;;11.30;99.90;;;;;;4872800;29;20060;-73
2022/09/25 20:34:46;;;;;;;3.53;2.47;;;11.30;99.90;;;;;;4870812;29;20082;-73
2022/09/25 20:37:11;;;;;;;8.25;2.50;;;11.30;99.90;;;;;;4864436;29;20524;-74
2022/09/25 20:39:37;;;;;;;6.05;2.28;;;11.90;99.90;;;;;;4873508;29;20053;-73
2022/09/25 20:42:03;;;;;;;8.02;2.30;;;11.20;99.90;;;;;;4873715;29;20049;-73
2022/09/25 20:44:29;;;;;;;9.20;2.20;;;11.20;99.90;;;;;;4874346;29;20131;-72
2022/09/25 20:46:54;;;;;;;5.40;2.00;;;11.30;99.90;;;;;;4870262;29;20034;-73
2022/09/25 20:49:20;;;;;;;5.45;2.08;;;11.30;99.90;;;;;;4867831;29;20041;-73
2022/09/25 20:51:46;;;;;;;4.55;2.05;;;11.30;99.90;;;;;;4870616;29;20068;-72
2022/09/25 20:54:12;;;;;;;5.65;1.83;;;11.30;99.90;;;;;;4862772;29;20037;-74
2022/09/25 20:56:43;;;;;;;6.03;2.60;;;11.20;99.90;;;;;;4879523;29;20552;-72
2022/09/25 20:59:10;;;;;;;7.03;2.55;;;11.40;99.90;;;;;;4877165;29;20057;-72
2022/09/25 21:01:36;;;;;;;15.43;3.45;;;11.20;99.90;;;;;;4850651;29;20052;-72
2022/09/25 21:04:05;;;;;;;5.30;2.20;;;11.30;99.90;;;;;;4854709;29;20062;-71
2022/09/25 21:06:33;;;;;;;5.60;2.25;;;11.30;99.90;;;;;;4859940;29;20132;-74
2022/09/25 21:09:01;;;;;;;2.97;1.90;;;11.20;99.90;;;;;;4876410;29;20491;-73
2022/09/25 21:11:29;;;;;;;6.35;2.15;;;11.20;99.90;;;;;;4859500;29;20097;-72
2022/09/25 21:13:57;;;;;;;9.30;2.42;;;11.20;99.90;;;;;;4875234;29;20479;-72
2022/09/25 21:16:23;;;;;;;8.15;2.22;;;11.30;99.90;;;;;;4873093;29;20084;-73
2022/09/25 21:19:03;;;;;;;8.52;2.70;;;11.30;99.90;;;;;;4844411;29;20057;-73
2022/09/25 21:21:29;;;;;;;6.32;2.50;;;11.20;99.90;;;;;;4855975;29;20057;-72
2022/09/25 21:23:56;;;;;;;10.57;2.83;;;11.30;99.90;;;;;;4878474;29;20052;-73
2022/09/25 21:26:25;;;;;;;9.00;2.50;;;11.40;99.90;;;;;;4878943;29;20044;-74
2022/09/25 21:28:52;;;;;;;5.47;2.35;;;11.30;99.90;;;;;;4860099;29;20097;-72
2022/09/25 21:31:24;;;;;;;6.45;1.95;;;11.40;99.90;;;;;;4875640;29;20401;-73
2022/09/25 21:33:51;;;;;;;4.05;2.40;;;11.40;99.90;;;;;;4875375;29;20052;-73
2022/09/25 21:36:18;;;;;;;9.45;2.33;;;11.40;99.90;;;;;;4859524;29;20084;-72
2022/09/25 21:38:43;;;;;;;7.70;2.72;;;11.40;99.90;;;;;;4875904;29;20128;-73
2022/09/25 21:41:19;;;;;;;5.32;2.58;;;11.40;99.90;;;;;;4876022;29;20549;-74
2022/09/25 21:43:45;;;;;;;5.90;2.55;;;11.40;99.90;;;;;;4874292;29;20446;-73
2022/09/25 21:46:13;;;;;;;6.88;2.50;;;11.40;99.90;;;;;;4844143;29;20048;-74
2022/09/25 21:48:43;;;;;;;4.45;2.50;;;11.50;99.90;;;;;;4859413;29;20132;-72
2022/09/25 21:51:11;;;;;;;3.80;2.25;;;11.40;99.90;;;;;;4876332;29;20057;-73
2022/09/25 21:53:37;;;;;;;4.07;2.25;;;11.40;99.90;;;;;;4843484;29;20409;-73
2022/09/25 21:56:07;;;;;;;7.35;2.25;;;11.40;99.90;;;;;;4875968;29;20048;-73
2022/09/25 21:58:33;;;;;;;5.95;2.20;;;11.50;99.90;;;;;;4858238;29;20084;-73
2022/09/25 22:01:07;;;;;;;3.72;2.00;;;11.40;99.90;;;;;;4876042;29;20045;-73
2022/09/25 22:03:35;;;;;;;7.30;2.38;;;11.40;99.90;;;;;;4876570;29;20053;-72
2022/09/25 22:06:03;;;;;;;6.05;2.25;;;11.40;99.90;;;;;;4878909;29;20117;-73
2022/09/25 22:08:30;;;;;;;6.45;2.30;;;11.40;99.90;;;;;;4877205;29;20092;-72
2022/09/25 22:11:00;;;;;;;6.40;2.20;;;11.50;99.90;;;;;;4875901;29;20085;-73
2022/09/25 22:13:27;;;;;;;4.90;2.30;;;11.50;99.90;;;;;;4877235;29;20049;-71
2022/09/25 22:16:07;;;;;;;6.38;2.33;;;11.40;99.90;;;;;;4876083;29;20044;-74
2022/09/25 22:18:39;;;;;;;3.40;1.90;;;11.40;99.90;;;;;;4858847;29;20052;-74
2022/09/25 22:21:04;;;;;;;4.95;2.63;;;11.40;99.90;;;;;;4858780;29;20448;-74
2022/09/25 22:23:30;;;;;;;4.82;2.47;;;11.30;99.90;;;;;;4878184;29;20056;-73
2022/09/25 22:25:59;;;;;;;3.47;2.20;;;11.50;99.90;;;;;;4877339;29;20064;-73
2022/09/25 22:28:26;;;;;;;7.40;2.20;;;11.40;99.90;;;;;;4875569;29;20066;-73
2022/09/25 22:30:52;;;;;;;7.93;2.33;;;11.40;99.90;;;;;;4856928;29;20045;-73
2022/09/25 22:33:17;;;;;;;4.97;2.15;;;11.30;99.90;;;;;;4869686;29;20044;-74
2022/09/25 22:35:45;;;;;;;6.72;2.35;;;11.30;99.90;;;;;;4874802;29;20053;-73
2022/09/25 22:38:11;;;;;;;5.45;2.47;;;11.30;99.90;;;;;;4859202;29;20049;-73
2022/09/25 22:40:38;;;;;;;9.10;2.17;;;11.30;99.90;;;;;;4877920;29;20116;-74
2022/09/25 22:43:07;;;;;;;8.50;1.95;;;11.40;99.90;;;;;;4869785;29;20045;-73
2022/09/25 22:45:32;;;;;;;5.75;2.13;;;11.40;99.90;;;;;;4873312;29;20041;-73
2022/09/25 22:47:59;;;;;;;5.15;1.92;;;11.40;99.90;;;;;;4877238;29;20107;-74
2022/09/25 22:50:29;;;;;;;5.10;1.85;;;11.40;99.90;;;;;;4831235;29;20515;-76
2022/09/25 22:52:54;;;;;;;5.93;2.10;;;11.40;99.90;;;;;;4870787;29;20046;-73
2022/09/25 22:55:23;;;;;;;5.00;1.75;;;11.40;99.90;;;;;;4876506;29;20033;-73
2022/09/25 22:57:49;;;;;;;6.38;1.77;;;11.40;99.90;;;;;;4877020;29;20060;-72
2022/09/25 23:00:15;;;;;;;4.75;1.92;;;11.50;99.90;;;;;;4876210;29;20037;-74